Time;durP1;ratioP1;P1;durP2;ratioP2;P2;SDS_P1;SDS_P2;PMS_P1;PMS_P2;Temp;Humidity;BMP_temperature;BMP_pressure;BME280_temperature;BME280_humidity;BME280_pressure;Samples;Min_cycle;Max_cycle;Signal;HPM_P1;HPM_P2
2023/03/08 00:19:35;;;;;;;5.40;4.38;;;;;;;;;;5054205;28;20036;-64
2023/03/08 00:22:01;;;;;;;5.15;4.38;;;;;;;;;;5054350;28;20048;-65
2023/03/08 00:24:26;;;;;;;6.07;4.93;;;;;;;;;;5054096;28;20465;-65
2023/03/08 00:26:52;;;;;;;7.07;4.90;;;;;;;;;;5053990;28;20029;-65
2023/03/08 00:29:17;;;;;;;5.25;4.50;;;;;;;;;;5053986;28;20021;-65
2023/03/08 00:31:43;;;;;;;6.93;4.25;;;;;;;;;;5053891;28;20044;-65
2023/03/08 00:34:09;;;;;;;5.35;4.53;;;;;;;;;;5053808;28;20025;-65
2023/03/08 00:36:34;;;;;;;5.78;4.35;;;;;;;;;;5053732;28;20053;-65
2023/03/08 00:39:00;;;;;;;5.68;4.53;;;;;;;;;;5053736;28;20170;-65
2023/03/08 00:41:25;;;;;;;5.25;4.35;;;;;;;;;;5053405;28;20078;-65
2023/03/08 00:43:51;;;;;;;7.47;4.88;;;;;;;;;;5053911;28;20029;-65
2023/03/08 00:46:17;;;;;;;4.88;4.38;;;;;;;;;;5053870;28;20461;-65
2023/03/08 00:48:42;;;;;;;6.07;4.25;;;;;;;;;;5053599;28;20489;-65
2023/03/08 00:51:12;;;;;;;6.93;4.70;;;;;;;;;;5053520;28;20083;-65
2023/03/08 00:53:38;;;;;;;6.00;4.47;;;;;;;;;;5053510;28;20029;-65
2023/03/08 00:56:03;;;;;;;6.63;4.47;;;;;;;;;;5052164;28;20500;-65
2023/03/08 00:58:30;;;;;;;5.70;4.70;;;;;;;;;;5053298;28;20025;-65
2023/03/08 01:00:56;;;;;;;7.70;4.70;;;;;;;;;;5053417;28;20225;-65
2023/03/08 01:03:22;;;;;;;5.05;4.25;;;;;;;;;;5052044;28;20025;-65
2023/03/08 01:05:53;;;;;;;6.13;4.35;;;;;;;;;;5053497;28;20032;-65
2023/03/08 01:08:20;;;;;;;6.50;4.80;;;;;;;;;;5053207;28;20481;-65
2023/03/08 01:10:56;;;;;;;7.32;4.80;;;;;;;;;;5053184;28;20029;-65
2023/03/08 01:13:25;;;;;;;5.43;4.40;;;;;;;;;;5053155;28;20025;-65
2023/03/08 01:15:51;;;;;;;5.93;4.90;;;;;;;;;;5053101;28;20070;-65
2023/03/08 01:18:16;;;;;;;5.93;4.22;;;;;;;;;;5052959;28;20423;-65
2023/03/08 01:20:42;;;;;;;6.95;4.40;;;;;;;;;;5053261;28;20036;-65
2023/03/08 01:23:08;;;;;;;5.82;4.40;;;;;;;;;;5052980;28;20492;-65
2023/03/08 01:25:34;;;;;;;6.32;4.40;;;;;;;;;;5053217;28;20067;-65
2023/03/08 01:27:59;;;;;;;5.55;4.22;;;;;;;;;;5052798;28;20029;-65
2023/03/08 01:30:25;;;;;;;6.22;4.43;;;;;;;;;;5052786;28;20151;-65
2023/03/08 01:32:51;;;;;;;5.88;4.38;;;;;;;;;;5052728;28;20056;-65
2023/03/08 01:35:16;;;;;;;5.22;4.50;;;;;;;;;;5052615;28;20045;-65
2023/03/08 01:37:42;;;;;;;6.10;4.35;;;;;;;;;;5052877;28;20033;-65
2023/03/08 01:40:09;;;;;;;5.50;4.40;;;;;;;;;;5052670;28;20079;-65
2023/03/08 01:42:37;;;;;;;5.65;4.50;;;;;;;;;;5051348;28;20025;-65
2023/03/08 01:45:05;;;;;;;7.47;5.00;;;;;;;;;;5052602;28;20020;-65
2023/03/08 01:47:34;;;;;;;6.40;4.30;;;;;;;;;;5052519;28;20120;-65
2023/03/08 01:50:09;;;;;;;6.32;4.68;;;;;;;;;;5052809;28;20029;-65
2023/03/08 01:52:42;;;;;;;7.28;4.53;;;;;;;;;;5051952;28;20029;-65
2023/03/08 01:55:11;;;;;;;6.63;4.50;;;;;;;;;;5052785;28;20027;-65
2023/03/08 01:57:41;;;;;;;5.38;4.50;;;;;;;;;;5052324;28;20029;-65
2023/03/08 02:00:08;;;;;;;6.82;4.70;;;;;;;;;;5052735;28;20116;-65
2023/03/08 02:02:43;;;;;;;6.60;4.90;;;;;;;;;;5052599;28;20368;-65
2023/03/08 02:05:10;;;;;;;6.00;4.60;;;;;;;;;;5052405;28;20021;-65
2023/03/08 02:07:36;;;;;;;5.88;4.45;;;;;;;;;;5052543;28;20032;-65
2023/03/08 02:10:02;;;;;;;6.50;4.70;;;;;;;;;;5052313;28;20029;-65
2023/03/08 02:12:28;;;;;;;7.00;4.63;;;;;;;;;;5052213;28;20103;-65
2023/03/08 02:14:55;;;;;;;4.72;3.85;;;;;;;;;;5052315;28;20059;-65
2023/03/08 02:17:21;;;;;;;5.78;4.53;;;;;;;;;;5052429;28;20033;-65
2023/03/08 02:20:06;;;;;;;7.53;4.97;;;;;;;;;;5052199;28;20438;-65
2023/03/08 02:22:38;;;;;;;5.78;4.43;;;;;;;;;;5052282;28;20489;-65
2023/03/08 02:25:14;;;;;;;5.38;4.57;;;;;;;;;;5052209;28;20037;-65
2023/03/08 02:27:40;;;;;;;5.45;4.60;;;;;;;;;;5052172;28;20033;-65
2023/03/08 02:30:07;;;;;;;6.13;4.13;;;;;;;;;;5052087;28;20033;-65
2023/03/08 02:32:32;;;;;;;5.00;4.13;;;;;;;;;;5052002;28;20082;-65
2023/03/08 02:34:58;;;;;;;7.10;4.50;;;;;;;;;;5051946;28;20025;-65
2023/03/08 02:37:23;;;;;;;6.60;4.55;;;;;;;;;;5051979;28;20032;-65
2023/03/08 02:39:49;;;;;;;5.50;4.30;;;;;;;;;;5052050;28;20473;-65
2023/03/08 02:42:14;;;;;;;5.35;4.28;;;;;;;;;;5052036;28;20021;-65
2023/03/08 02:44:40;;;;;;;5.60;4.45;;;;;;;;;;5051996;28;20017;-64
2023/03/08 02:47:06;;;;;;;5.90;4.53;;;;;;;;;;5052182;28;20017;-64
2023/03/08 02:49:31;;;;;;;5.40;4.63;;;;;;;;;;5051924;28;20377;-65
2023/03/08 02:51:57;;;;;;;5.03;4.50;;;;;;;;;;5051897;28;20028;-64
2023/03/08 02:54:23;;;;;;;4.90;4.20;;;;;;;;;;5052185;28;20032;-65
2023/03/08 02:56:48;;;;;;;5.28;4.53;;;;;;;;;;5052173;28;20021;-65
2023/03/08 02:59:14;;;;;;;5.45;4.20;;;;;;;;;;5052357;28;20427;-64
2023/03/08 03:01:39;;;;;;;6.57;4.80;;;;;;;;;;5051798;28;20366;-65
2023/03/08 03:04:05;;;;;;;4.88;4.38;;;;;;;;;;5054589;28;20048;-65
2023/03/08 03:06:31;;;;;;;5.53;4.38;;;;;;;;;;5055558;28;20056;-65
2023/03/08 03:08:57;;;;;;;6.85;4.88;;;;;;;;;;5055493;28;20473;-65
2023/03/08 03:11:23;;;;;;;5.53;4.28;;;;;;;;;;5055498;28;20116;-65
2023/03/08 03:13:55;;;;;;;5.07;4.20;;;;;;;;;;5055453;28;20485;-65
2023/03/08 03:16:21;;;;;;;5.05;4.07;;;;;;;;;;5055308;28;20028;-65
2023/03/08 03:18:46;;;;;;;5.35;4.13;;;;;;;;;;5055180;28;20029;-65
2023/03/08 03:21:13;;;;;;;6.00;4.07;;;;;;;;;;5055285;28;20025;-65
2023/03/08 03:23:40;;;;;;;5.45;4.10;;;;;;;;;;5055470;28;20461;-65
2023/03/08 03:26:08;;;;;;;5.32;4.10;;;;;;;;;;5055154;28;20359;-65
2023/03/08 03:28:34;;;;;;;6.50;4.22;;;;;;;;;;5055137;28;20120;-65
2023/03/08 03:31:00;;;;;;;5.68;4.28;;;;;;;;;;5055392;28;20104;-65
2023/03/08 03:33:28;;;;;;;5.25;4.47;;;;;;;;;;5055383;28;20064;-65
2023/03/08 03:35:54;;;;;;;5.50;3.97;;;;;;;;;;5054983;28;20037;-65
2023/03/08 03:38:19;;;;;;;4.72;3.95;;;;;;;;;;5054876;28;20094;-65
2023/03/08 03:40:45;;;;;;;5.90;4.55;;;;;;;;;;5054920;28;20029;-65
2023/03/08 03:43:10;;;;;;;5.15;4.32;;;;;;;;;;5055137;28;20108;-65
2023/03/08 03:45:36;;;;;;;5.75;4.10;;;;;;;;;;5054814;28;20029;-65
2023/03/08 03:48:01;;;;;;;5.38;4.22;;;;;;;;;;5055043;28;20028;-65
2023/03/08 03:50:27;;;;;;;5.43;4.30;;;;;;;;;;5055027;28;20496;-65
2023/03/08 03:52:52;;;;;;;6.28;4.35;;;;;;;;;;5054707;28;20473;-65
2023/03/08 03:55:18;;;;;;;4.95;4.07;;;;;;;;;;5054626;28;20032;-65
2023/03/08 03:57:43;;;;;;;6.68;4.60;;;;;;;;;;5054488;28;20039;-65
2023/03/08 04:00:10;;;;;;;5.82;4.47;;;;;;;;;;5054567;28;20048;-65
2023/03/08 04:02:35;;;;;;;5.28;4.35;;;;;;;;;;5054508;28;20416;-65
2023/03/08 04:05:01;;;;;;;5.50;4.60;;;;;;;;;;5054484;28;20021;-65
2023/03/08 04:07:26;;;;;;;5.53;4.07;;;;;;;;;;5054351;28;20527;-65
2023/03/08 04:09:52;;;;;;;4.78;4.00;;;;;;;;;;5054715;28;20044;-64
2023/03/08 04:12:17;;;;;;;5.00;3.92;;;;;;;;;;5054318;28;20021;-65
2023/03/08 04:14:43;;;;;;;4.68;3.80;;;;;;;;;;5053407;28;20032;-65
2023/03/08 04:17:09;;;;;;;5.05;4.47;;;;;;;;;;5054180;28;20036;-64
2023/03/08 04:19:34;;;;;;;4.65;3.78;;;;;;;;;;5054492;28;20040;-64
2023/03/08 04:22:00;;;;;;;4.55;4.10;;;;;;;;;;5054164;28;20178;-64
2023/03/08 04:24:26;;;;;;;6.22;4.20;;;;;;;;;;5054097;28;20035;-64
2023/03/08 04:26:52;;;;;;;6.32;3.97;;;;;;;;;;5054327;28;20032;-64
2023/03/08 04:29:17;;;;;;;5.18;4.03;;;;;;;;;;5053981;28;20028;-64
2023/03/08 04:31:43;;;;;;;4.65;4.10;;;;;;;;;;5053973;28;20032;-65
2023/03/08 04:34:08;;;;;;;4.47;3.70;;;;;;;;;;5053908;28;20029;-65
2023/03/08 04:36:35;;;;;;;4.93;3.95;;;;;;;;;;5053706;28;20123;-65
2023/03/08 04:39:01;;;;;;;5.30;4.00;;;;;;;;;;5053776;28;20187;-65
2023/03/08 04:41:26;;;;;;;5.43;3.90;;;;;;;;;;5053808;28;20207;-64
2023/03/08 04:43:56;;;;;;;4.50;3.83;;;;;;;;;;5053736;28;20384;-65
2023/03/08 04:46:26;;;;;;;5.57;4.13;;;;;;;;;;5053963;28;20032;-65
2023/03/08 04:48:54;;;;;;;4.40;3.70;;;;;;;;;;5053914;28;20039;-65
2023/03/08 04:51:21;;;;;;;5.00;3.97;;;;;;;;;;5053933;28;20111;-65
2023/03/08 04:53:47;;;;;;;4.40;3.72;;;;;;;;;;5053462;28;20025;-65
2023/03/08 04:56:14;;;;;;;5.00;4.00;;;;;;;;;;5053724;28;20017;-65
2023/03/08 04:58:40;;;;;;;4.70;3.80;;;;;;;;;;5053356;28;20033;-65
2023/03/08 05:01:12;;;;;;;5.53;4.00;;;;;;;;;;5053637;28;20116;-65
2023/03/08 05:03:38;;;;;;;4.85;3.83;;;;;;;;;;5053578;28;20021;-65
2023/03/08 05:06:04;;;;;;;6.55;4.20;;;;;;;;;;5053595;28;20128;-65
2023/03/08 05:08:29;;;;;;;5.25;4.63;;;;;;;;;;5053813;28;20491;-64
2023/03/08 05:10:57;;;;;;;4.40;3.72;;;;;;;;;;5053191;28;20457;-65
2023/03/08 05:13:28;;;;;;;5.53;4.28;;;;;;;;;;5053145;28;20037;-65
2023/03/08 05:15:54;;;;;;;5.78;4.53;;;;;;;;;;5053040;28;20029;-65
2023/03/08 05:18:20;;;;;;;7.22;4.30;;;;;;;;;;5052917;28;20029;-64
2023/03/08 05:21:00;;;;;;;4.88;3.85;;;;;;;;;;5053249;28;20044;-64
2023/03/08 05:23:27;;;;;;;4.65;3.63;;;;;;;;;;5052985;28;20114;-65
2023/03/08 05:25:54;;;;;;;6.35;4.32;;;;;;;;;;5053110;28;20499;-65
2023/03/08 05:28:24;;;;;;;5.95;3.67;;;;;;;;;;5052740;28;20021;-65
2023/03/08 05:31:05;;;;;;;4.78;3.90;;;;;;;;;;5052809;28;20410;-65
2023/03/08 05:33:30;;;;;;;;;;;;;;;;;;5053211;28;20384;-65
2023/03/08 05:35:56;;;;;;;4.85;3.80;;;;;;;;;;5052492;28;19924;-65
2023/03/08 05:38:23;;;;;;;6.00;3.92;;;;;;;;;;5052639;28;20472;-65
2023/03/08 05:40:49;;;;;;;4.18;3.78;;;;;;;;;;5052662;28;20416;-65
2023/03/08 05:43:16;;;;;;;4.78;3.80;;;;;;;;;;5052578;28;20025;-65
2023/03/08 05:45:41;;;;;;;4.00;3.35;;;;;;;;;;5052779;28;20045;-65
2023/03/08 05:48:08;;;;;;;5.60;3.95;;;;;;;;;;5052835;28;20449;-65
2023/03/08 05:50:36;;;;;;;5.15;3.90;;;;;;;;;;5052542;28;20108;-65
2023/03/08 05:53:02;;;;;;;4.60;3.70;;;;;;;;;;5052490;28;20112;-65
2023/03/08 05:55:28;;;;;;;4.63;3.95;;;;;;;;;;5052732;28;20129;-65
2023/03/08 05:57:53;;;;;;;4.68;3.83;;;;;;;;;;5052309;28;20108;-65
2023/03/08 06:00:19;;;;;;;5.13;3.90;;;;;;;;;;5052404;28;20028;-65
2023/03/08 06:02:45;;;;;;;5.28;3.90;;;;;;;;;;5052401;28;20017;-64
2023/03/08 06:05:10;;;;;;;4.93;4.00;;;;;;;;;;5052368;28;20485;-65
2023/03/08 06:07:36;;;;;;;4.32;3.70;;;;;;;;;;5052580;28;20369;-64
2023/03/08 06:10:02;;;;;;;5.00;4.00;;;;;;;;;;5052326;28;20029;-64
2023/03/08 06:12:27;;;;;;;5.03;4.20;;;;;;;;;;5052242;28;20025;-64
2023/03/08 06:14:53;;;;;;;6.07;4.18;;;;;;;;;;5052187;28;20054;-64
2023/03/08 06:17:19;;;;;;;5.50;4.07;;;;;;;;;;5051069;28;20033;-64
2023/03/08 06:19:45;;;;;;;4.90;3.90;;;;;;;;;;5052437;28;20028;-64
2023/03/08 06:22:11;;;;;;;5.03;3.65;;;;;;;;;;5052112;28;20028;-64
2023/03/08 06:24:36;;;;;;;5.88;4.07;;;;;;;;;;5052375;28;20025;-65
2023/03/08 06:27:02;;;;;;;4.07;3.67;;;;;;;;;;5052032;28;20071;-65
2023/03/08 06:29:28;;;;;;;5.53;4.00;;;;;;;;;;5052316;28;20017;-64
2023/03/08 06:31:53;;;;;;;3.88;3.10;;;;;;;;;;5050832;28;20385;-64
2023/03/08 06:34:20;;;;;;;5.15;3.72;;;;;;;;;;5051977;28;20036;-64
2023/03/08 06:36:46;;;;;;;6.22;4.05;;;;;;;;;;5051912;28;20049;-64
2023/03/08 06:39:11;;;;;;;5.20;4.10;;;;;;;;;;5055322;28;20424;-64
2023/03/08 06:41:37;;;;;;;5.45;3.90;;;;;;;;;;5055908;28;20413;-64
2023/03/08 06:44:03;;;;;;;5.28;3.67;;;;;;;;;;5055734;28;20071;-64
2023/03/08 06:46:28;;;;;;;5.72;4.03;;;;;;;;;;5055819;28;20025;-64
2023/03/08 06:48:54;;;;;;;4.43;3.72;;;;;;;;;;5056254;28;20071;-64
2023/03/08 06:51:20;;;;;;;4.32;3.50;;;;;;;;;;5055766;28;20033;-64
2023/03/08 06:53:46;;;;;;;4.40;3.65;;;;;;;;;;5055994;28;20530;-64
2023/03/08 06:56:14;;;;;;;4.47;3.70;;;;;;;;;;5055572;28;20033;-64
2023/03/08 06:58:41;;;;;;;6.40;4.13;;;;;;;;;;5055522;28;20040;-64
2023/03/08 07:01:08;;;;;;;4.63;3.83;;;;;;;;;;5055570;28;20579;-64
2023/03/08 07:03:34;;;;;;;4.63;3.90;;;;;;;;;;5055522;28;20063;-64
2023/03/08 07:06:09;;;;;;;4.53;3.55;;;;;;;;;;5055539;28;20017;-64
2023/03/08 07:08:36;;;;;;;4.68;3.63;;;;;;;;;;5055529;28;20031;-64
2023/03/08 07:11:02;;;;;;;6.75;4.20;;;;;;;;;;5055346;28;20412;-64
2023/03/08 07:13:28;;;;;;;4.00;3.55;;;;;;;;;;5055464;28;20041;-65
2023/03/08 07:15:55;;;;;;;4.57;3.70;;;;;;;;;;5055610;28;20057;-65
2023/03/08 07:18:21;;;;;;;5.43;3.70;;;;;;;;;;5055200;28;20029;-65
2023/03/08 07:20:55;;;;;;;4.78;4.07;;;;;;;;;;5055273;28;20040;-64
2023/03/08 07:23:21;;;;;;;6.40;4.43;;;;;;;;;;5055261;28;20519;-65
2023/03/08 07:25:47;;;;;;;4.80;3.70;;;;;;;;;;5055136;28;20032;-65
2023/03/08 07:28:12;;;;;;;4.32;3.42;;;;;;;;;;5055382;28;20029;-65
2023/03/08 07:30:38;;;;;;;5.75;3.72;;;;;;;;;;5054940;28;20495;-65
2023/03/08 07:33:03;;;;;;;4.97;3.97;;;;;;;;;;5055352;28;20031;-65
2023/03/08 07:35:29;;;;;;;5.75;4.05;;;;;;;;;;5054733;28;20071;-65
2023/03/08 07:37:54;;;;;;;5.07;4.07;;;;;;;;;;5054792;28;20033;-64
2023/03/08 07:40:20;;;;;;;5.40;4.10;;;;;;;;;;5054681;28;20027;-65
2023/03/08 07:42:46;;;;;;;5.88;4.15;;;;;;;;;;5055254;28;20025;-65
2023/03/08 07:45:13;;;;;;;4.38;3.92;;;;;;;;;;5051486;28;20559;-65
2023/03/08 07:47:39;;;;;;;4.05;3.60;;;;;;;;;;5049067;28;20041;-65
2023/03/08 07:50:06;;;;;;;4.30;3.70;;;;;;;;;;5049407;28;20051;-65
2023/03/08 07:52:32;;;;;;;4.35;3.70;;;;;;;;;;5049164;28;20036;-65
2023/03/08 07:54:57;;;;;;;5.32;3.97;;;;;;;;;;5048785;28;20036;-65
2023/03/08 07:57:23;;;;;;;4.00;3.60;;;;;;;;;;5049776;28;20033;-65
2023/03/08 07:59:50;;;;;;;4.72;3.75;;;;;;;;;;5049855;28;20021;-65
2023/03/08 08:02:16;;;;;;;5.35;4.28;;;;;;;;;;5048019;28;20028;-65
2023/03/08 08:04:42;;;;;;;4.97;3.78;;;;;;;;;;5049570;28;20025;-65
2023/03/08 08:07:13;;;;;;;5.22;4.05;;;;;;;;;;5048694;28;20025;-65
2023/03/08 08:09:39;;;;;;;4.38;3.60;;;;;;;;;;5062122;28;20546;-65
2023/03/08 08:12:05;;;;;;;5.30;3.78;;;;;;;;;;5050096;28;20025;-65
2023/03/08 08:14:31;;;;;;;4.53;3.72;;;;;;;;;;5053812;28;20029;-65
2023/03/08 08:16:57;;;;;;;4.72;3.80;;;;;;;;;;5054432;28;20148;-65
2023/03/08 08:19:23;;;;;;;5.25;3.97;;;;;;;;;;5053961;28;20074;-65
2023/03/08 08:21:48;;;;;;;5.85;4.25;;;;;;;;;;5054022;28;20025;-65
2023/03/08 08:24:14;;;;;;;4.47;3.63;;;;;;;;;;5054218;28;20021;-65
2023/03/08 08:26:41;;;;;;;6.05;4.03;;;;;;;;;;5048093;28;20040;-65
2023/03/08 08:29:06;;;;;;;5.05;4.00;;;;;;;;;;5049345;28;20057;-65
2023/03/08 08:31:32;;;;;;;4.95;3.92;;;;;;;;;;5049199;28;20055;-66
2023/03/08 08:33:58;;;;;;;5.03;4.00;;;;;;;;;;5049359;28;20031;-65
2023/03/08 08:36:24;;;;;;;5.70;3.60;;;;;;;;;;5049092;28;20052;-65
2023/03/08 08:38:50;;;;;;;5.57;4.07;;;;;;;;;;5048770;28;20040;-65
2023/03/08 08:41:18;;;;;;;6.35;4.25;;;;;;;;;;5051393;28;20029;-65
2023/03/08 08:43:45;;;;;;;4.65;4.10;;;;;;;;;;5052158;28;20108;-65
2023/03/08 08:46:12;;;;;;;5.55;4.07;;;;;;;;;;5065618;28;20017;-64
2023/03/08 08:48:38;;;;;;;4.85;3.60;;;;;;;;;;5052318;28;20112;-65
2023/03/08 08:51:06;;;;;;;5.05;4.05;;;;;;;;;;5051638;28;20028;-65
2023/03/08 08:53:31;;;;;;;5.53;4.05;;;;;;;;;;5050610;28;20111;-65
2023/03/08 08:56:01;;;;;;;4.43;3.85;;;;;;;;;;5048403;28;20196;-65
2023/03/08 08:58:26;;;;;;;5.15;3.88;;;;;;;;;;5047532;28;20079;-65
2023/03/08 09:00:52;;;;;;;4.90;3.92;;;;;;;;;;5050219;28;20366;-65
2023/03/08 09:03:18;;;;;;;5.07;4.22;;;;;;;;;;5050291;28;20033;-65
2023/03/08 09:05:44;;;;;;;4.53;3.75;;;;;;;;;;5050217;28;20112;-65
2023/03/08 09:08:10;;;;;;;4.07;3.67;;;;;;;;;;5049722;28;20119;-65
2023/03/08 09:10:38;;;;;;;5.07;4.25;;;;;;;;;;5050101;28;20123;-65
2023/03/08 09:13:05;;;;;;;4.20;3.67;;;;;;;;;;5049911;28;20496;-65
2023/03/08 09:15:30;;;;;;;4.50;3.70;;;;;;;;;;5049920;28;20563;-65
2023/03/08 09:17:56;;;;;;;4.10;3.70;;;;;;;;;;5050257;28;20032;-64
2023/03/08 09:20:22;;;;;;;4.80;3.72;;;;;;;;;;5049902;28;20710;-65
2023/03/08 09:22:48;;;;;;;4.38;3.97;;;;;;;;;;5050374;28;20060;-65
2023/03/08 09:25:13;;;;;;;4.40;3.75;;;;;;;;;;5049110;28;20056;-64
2023/03/08 09:27:41;;;;;;;4.72;3.38;;;;;;;;;;5050381;28;20439;-65
2023/03/08 09:30:11;;;;;;;4.88;3.80;;;;;;;;;;5051084;28;20029;-65
2023/03/08 09:32:37;;;;;;;4.47;3.75;;;;;;;;;;5051043;28;20400;-63
2023/03/08 09:35:06;;;;;;;4.68;4.10;;;;;;;;;;5051314;28;20025;-65
2023/03/08 09:37:32;;;;;;;5.15;4.25;;;;;;;;;;5049089;28;20040;-66
2023/03/08 09:39:58;;;;;;;5.25;4.20;;;;;;;;;;5051382;28;20086;-66
2023/03/08 09:42:28;;;;;;;4.47;3.90;;;;;;;;;;5049556;28;20092;-63
2023/03/08 09:45:12;;;;;;;5.30;4.28;;;;;;;;;;5050153;28;20039;-64
2023/03/08 09:47:43;;;;;;;4.47;3.72;;;;;;;;;;5048148;28;20055;-64
2023/03/08 09:50:12;;;;;;;4.68;4.05;;;;;;;;;;5050552;28;20033;-64
2023/03/08 09:52:42;;;;;;;4.65;4.00;;;;;;;;;;5047734;28;20025;-65
2023/03/08 09:55:33;;;;;;;4.13;3.72;;;;;;;;;;5050864;28;20029;-65
2023/03/08 09:58:17;;;;;;;4.07;3.67;;;;;;;;;;5047886;28;20052;-66
2023/03/08 10:00:43;;;;;;;5.35;3.92;;;;;;;;;;5050628;28;20087;-65
2023/03/08 10:03:49;;;;;;;5.70;3.90;;;;;;;;;;5050020;28;20060;-65
2023/03/08 10:06:41;;;;;;;4.22;3.33;;;;;;;;;;5046612;28;20021;-65
2023/03/08 10:09:33;;;;;;;5.25;4.00;;;;;;;;;;5048010;28;20029;-65
2023/03/08 10:12:00;;;;;;;5.43;3.80;;;;;;;;;;5048490;28;20029;-64
2023/03/08 10:14:36;;;;;;;4.50;3.58;;;;;;;;;;5049429;28;20025;-64
2023/03/08 10:17:20;;;;;;;4.28;3.58;;;;;;;;;;5047333;28;20104;-65
2023/03/08 10:19:54;;;;;;;4.43;3.60;;;;;;;;;;5046179;28;20033;-64
2023/03/08 10:22:37;;;;;;;3.92;3.42;;;;;;;;;;5050355;28;20029;-65
2023/03/08 10:25:30;;;;;;;4.68;3.80;;;;;;;;;;5050812;28;20029;-65
2023/03/08 10:27:57;;;;;;;4.53;3.80;;;;;;;;;;5043632;28;20041;-66
2023/03/08 10:30:31;;;;;;;4.25;3.85;;;;;;;;;;5030584;28;20068;-64
2023/03/08 10:32:59;;;;;;;4.50;3.90;;;;;;;;;;5030258;28;20041;-64
2023/03/08 10:35:35;;;;;;;4.90;3.50;;;;;;;;;;5029630;28;20046;-64
2023/03/08 10:38:02;;;;;;;4.22;3.65;;;;;;;;;;5030697;28;20033;-65
2023/03/08 10:40:28;;;;;;;4.50;3.67;;;;;;;;;;5029530;28;20049;-64
2023/03/08 10:43:04;;;;;;;4.70;3.72;;;;;;;;;;5030103;28;20068;-64
2023/03/08 10:45:30;;;;;;;4.38;3.80;;;;;;;;;;5030146;28;20025;-64
2023/03/08 10:48:02;;;;;;;4.70;4.15;;;;;;;;;;5030106;28;20409;-64
2023/03/08 10:50:30;;;;;;;4.93;4.20;;;;;;;;;;5030402;28;20044;-64
2023/03/08 10:53:16;;;;;;;5.57;4.10;;;;;;;;;;5030325;28;20022;-65
2023/03/08 10:55:48;;;;;;;6.57;4.00;;;;;;;;;;5030010;28;20013;-65
2023/03/08 10:58:31;;;;;;;4.35;3.85;;;;;;;;;;5030064;28;20417;-64
2023/03/08 11:01:02;;;;;;;4.10;3.70;;;;;;;;;;5030276;28;20037;-64
2023/03/08 11:03:28;;;;;;;4.97;3.80;;;;;;;;;;5030188;28;20064;-65
2023/03/08 11:06:11;;;;;;;4.47;3.60;;;;;;;;;;5030622;28;20041;-65
2023/03/08 11:08:39;;;;;;;6.00;4.70;;;;;;;;;;5030120;28;20034;-65
2023/03/08 11:11:10;;;;;;;5.22;4.20;;;;;;;;;;5030179;28;20030;-65
2023/03/08 11:13:41;;;;;;;4.38;3.70;;;;;;;;;;5030132;28;20043;-65
2023/03/08 11:16:31;;;;;;;5.03;4.00;;;;;;;;;;5030424;28;20029;-64
2023/03/08 11:19:18;;;;;;;5.97;3.67;;;;;;;;;;5030092;28;20032;-64
2023/03/08 11:22:31;;;;;;;4.35;3.72;;;;;;;;;;5030202;28;20028;-64
2023/03/08 11:25:05;;;;;;;3.92;3.30;;;;;;;;;;5010031;28;20477;-65
2023/03/08 11:27:52;;;;;;;6.57;3.72;;;;;;;;;;5011395;28;20074;-65
2023/03/08 11:30:45;;;;;;;4.25;3.70;;;;;;;;;;5025755;28;20040;-65
2023/03/08 11:33:48;;;;;;;5.80;3.75;;;;;;;;;;5033576;28;20452;-65
2023/03/08 11:36:35;;;;;;;4.57;3.92;;;;;;;;;;5029310;28;20049;-65
2023/03/08 11:39:21;;;;;;;4.40;4.00;;;;;;;;;;5033615;28;20081;-65
2023/03/08 11:41:54;;;;;;;4.25;3.85;;;;;;;;;;5029211;28;20041;-65
2023/03/08 11:44:52;;;;;;;4.43;3.95;;;;;;;;;;5033366;28;20037;-65
2023/03/08 11:47:55;;;;;;;4.60;3.60;;;;;;;;;;5033141;28;20546;-64
2023/03/08 11:50:36;;;;;;;4.32;3.60;;;;;;;;;;5033213;28;20033;-65
2023/03/08 11:53:17;;;;;;;7.20;3.70;;;;;;;;;;5033156;28;20056;-65
2023/03/08 11:56:33;;;;;;;4.32;3.50;;;;;;;;;;5033453;28;20052;-64
2023/03/08 11:59:15;;;;;;;3.75;3.38;;;;;;;;;;5020471;28;20053;-65
2023/03/08 12:01:44;;;;;;;4.00;3.30;;;;;;;;;;5033410;28;20428;-65
2023/03/08 12:04:19;;;;;;;4.35;3.67;;;;;;;;;;5032846;28;20075;-65
2023/03/08 12:06:46;;;;;;;5.50;3.92;;;;;;;;;;5032771;28;20489;-65
2023/03/08 12:09:21;;;;;;;4.38;3.58;;;;;;;;;;5032629;28;20032;-64
2023/03/08 12:11:55;;;;;;;5.63;3.67;;;;;;;;;;5032819;28;20036;-65
2023/03/08 12:14:32;;;;;;;4.13;3.55;;;;;;;;;;5032603;28;20111;-63
2023/03/08 12:17:15;;;;;;;5.10;3.65;;;;;;;;;;5032908;28;20330;-64
2023/03/08 12:19:46;;;;;;;5.10;3.80;;;;;;;;;;5032363;28;20482;-64
2023/03/08 12:22:24;;;;;;;4.18;3.63;;;;;;;;;;5033313;28;20107;-63
2023/03/08 12:24:53;;;;;;;4.45;3.30;;;;;;;;;;5046127;28;20098;-63
2023/03/08 12:27:28;;;;;;;3.67;3.37;;;;;;;;;;5046853;28;20021;-64
2023/03/08 12:30:13;;;;;;;5.03;3.90;;;;;;;;;;5050319;28;20293;-63
2023/03/08 12:32:41;;;;;;;4.57;3.53;;;;;;;;;;5032736;28;20033;-63
2023/03/08 12:35:28;;;;;;;4.57;3.70;;;;;;;;;;5031758;28;20384;-65
2023/03/08 12:38:08;;;;;;;4.85;3.30;;;;;;;;;;5032140;28;20474;-64
2023/03/08 12:40:42;;;;;;;;;;;;;;;;;;5032778;28;20083;-64
2023/03/08 12:43:26;;;;;;;9.18;4.10;;;;;;;;;;5030698;28;20343;-68
2023/03/08 12:46:07;;;;;;;7.45;4.05;;;;;;;;;;5044406;28;20032;-68
2023/03/08 12:48:48;;;;;;;6.45;4.15;;;;;;;;;;5052285;28;20111;-69
2023/03/08 12:51:15;;;;;;;5.50;4.05;;;;;;;;;;5051953;28;20053;-71
2023/03/08 12:53:55;;;;;;;8.13;4.65;;;;;;;;;;5051891;28;20034;-69
2023/03/08 12:56:24;;;;;;;6.30;4.07;;;;;;;;;;5051900;28;20389;-70
2023/03/08 12:58:51;;;;;;;6.38;4.22;;;;;;;;;;5052171;28;20095;-69
2023/03/08 13:01:27;;;;;;;4.90;3.78;;;;;;;;;;5052051;28;20483;-69
2023/03/08 13:03:53;;;;;;;6.90;3.78;;;;;;;;;;5067247;28;20029;-71
2023/03/08 13:06:21;;;;;;;6.75;4.00;;;;;;;;;;5051797;28;20051;-73
2023/03/08 13:09:15;;;;;;;6.05;4.20;;;;;;;;;;5034095;28;20403;-68
2023/03/08 13:11:47;;;;;;;7.82;4.07;;;;;;;;;;5031338;28;20080;-70
2023/03/08 13:14:34;;;;;;;6.75;4.10;;;;;;;;;;5031661;28;20022;-69
2023/03/08 13:17:00;;;;;;;7.95;4.30;;;;;;;;;;5031510;28;20055;-71
2023/03/08 13:19:29;;;;;;;6.18;4.15;;;;;;;;;;5031235;28;20030;-70
2023/03/08 13:21:58;;;;;;;11.13;4.53;;;;;;;;;;5031508;28;20105;-70
2023/03/08 13:24:42;;;;;;;8.70;4.00;;;;;;;;;;5031392;28;20102;-69
2023/03/08 13:27:13;;;;;;;6.30;3.95;;;;;;;;;;5034160;28;20091;-69
2023/03/08 13:29:42;;;;;;;8.95;4.57;;;;;;;;;;5049626;28;20029;-68
2023/03/08 13:32:14;;;;;;;5.88;4.25;;;;;;;;;;5049210;28;20025;-71
2023/03/08 13:34:40;;;;;;;9.23;4.20;;;;;;;;;;5049189;28;20067;-68
2023/03/08 13:37:20;;;;;;;6.07;4.00;;;;;;;;;;5048830;28;20094;-71
2023/03/08 13:39:54;;;;;;;6.38;4.70;;;;;;;;;;5050193;28;20070;-64
2023/03/08 13:42:23;;;;;;;9.43;4.22;;;;;;;;;;5048224;28;20033;-69
2023/03/08 13:44:53;;;;;;;8.53;3.80;;;;;;;;;;5049731;28;20523;-66
2023/03/08 13:47:25;;;;;;;8.32;4.43;;;;;;;;;;5050665;28;20033;-69
2023/03/08 13:49:53;;;;;;;5.20;4.20;;;;;;;;;;5048958;28;20508;-65
2023/03/08 13:52:26;;;;;;;8.32;4.22;;;;;;;;;;5047665;28;20037;-68
2023/03/08 13:54:54;;;;;;;5.63;4.07;;;;;;;;;;5051004;28;20036;-67
2023/03/08 13:57:27;;;;;;;5.25;3.80;;;;;;;;;;5049648;28;20029;-69
2023/03/08 13:59:56;;;;;;;6.75;4.18;;;;;;;;;;5051032;28;20481;-70
2023/03/08 14:02:34;;;;;;;10.52;4.55;;;;;;;;;;5049637;28;20086;-72
2023/03/08 14:05:00;;;;;;;10.55;4.57;;;;;;;;;;5048443;28;20408;-70
2023/03/08 14:07:29;;;;;;;8.30;4.57;;;;;;;;;;5050835;28;20017;-68
2023/03/08 14:09:55;;;;;;;8.32;4.00;;;;;;;;;;5039550;28;20029;-71
2023/03/08 14:12:25;;;;;;;7.93;3.83;;;;;;;;;;5030985;28;20032;-69
2023/03/08 14:14:55;;;;;;;7.28;4.75;;;;;;;;;;5030913;28;20034;-70
2023/03/08 14:17:26;;;;;;;11.63;4.57;;;;;;;;;;5030835;28;20442;-72
2023/03/08 14:19:58;;;;;;;5.60;4.05;;;;;;;;;;5030742;28;20493;-70
2023/03/08 14:22:27;;;;;;;5.97;3.97;;;;;;;;;;5045871;28;20118;-72
2023/03/08 14:25:00;;;;;;;6.70;3.70;;;;;;;;;;5050482;28;20048;-70
2023/03/08 14:27:39;;;;;;;5.93;3.33;;;;;;;;;;5050470;28;20680;-70
2023/03/08 14:30:21;;;;;;;5.20;3.63;;;;;;;;;;5050468;28;20036;-72
2023/03/08 14:33:15;;;;;;;5.07;3.20;;;;;;;;;;5046161;28;20027;-71
2023/03/08 14:35:51;;;;;;;5.78;3.17;;;;;;;;;;5047591;28;20068;-69
2023/03/08 14:38:22;;;;;;;5.05;3.10;;;;;;;;;;5050439;28;20033;-71
2023/03/08 14:40:48;;;;;;;38.10;4.30;;;;;;;;;;5050326;28;20040;-69
2023/03/08 14:43:17;;;;;;;6.63;2.63;;;;;;;;;;5050590;28;20384;-71
2023/03/08 14:45:55;;;;;;;4.90;2.75;;;;;;;;;;5051094;28;20025;-71
2023/03/08 14:48:32;;;;;;;14.70;3.30;;;;;;;;;;5049199;28;20404;-71
2023/03/08 14:50:57;;;;;;;7.93;3.20;;;;;;;;;;5050484;28;20425;-71
2023/03/08 14:53:38;;;;;;;13.88;3.53;;;;;;;;;;5050592;28;20059;-70
2023/03/08 14:56:14;;;;;;;7.90;3.00;;;;;;;;;;5050414;28;20102;-71
2023/03/08 14:58:43;;;;;;;8.25;3.13;;;;;;;;;;5050528;28;20504;-70
2023/03/08 15:01:09;;;;;;;4.63;2.95;;;;;;;;;;5053912;28;20516;-70
2023/03/08 15:03:35;;;;;;;9.50;3.22;;;;;;;;;;5053289;28;20021;-69
2023/03/08 15:06:09;;;;;;;10.18;3.15;;;;;;;;;;5048666;28;20052;-67
2023/03/08 15:08:35;;;;;;;7.32;3.28;;;;;;;;;;5052393;28;20089;-66
2023/03/08 15:11:01;;;;;;;4.78;3.08;;;;;;;;;;5053698;28;20112;-69
2023/03/08 15:13:27;;;;;;;6.85;3.65;;;;;;;;;;5052359;28;20120;-70
2023/03/08 15:15:52;;;;;;;8.60;3.33;;;;;;;;;;5053899;28;20025;-71
2023/03/08 15:18:18;;;;;;;4.43;3.53;;;;;;;;;;5052202;28;20033;-69